Aeroporto :







RITROVATECI SU...

 
LOGIN :

Iscrizione | Disclaimer

   EN    FR    IT 

 









Sommario :    VFR   VFR Marginale   IFR   IFR Intensivo   IFR Molto Intensivo
Visibilità : 
Base nubi : 
>= 8 km
>= 3000ft
5 / 8 km
1000 / 3000 ft
1500m / 5 km
500 / 1000 ft
800 / 1500m
200 / 500 ft
< 800m
< 200 ft
Simboli :   Temporali  Nebbia  Neve Forte  Precipitazioni Forti  Vento > 20 kt







- Altitudine del aeroporto : 333 ft


KWVL - Waterville Robert Lafleur

ULTIMO METAR :
  • 230456Z AUTO 02014KT 5SM -RA BR OVC006 09/09 A3002 RMK AO2 CIG 004V009 SLP193 P0004 T00940089 401720094

METARs OBSOLETI :
  • 230426Z AUTO 02014KT 8SM -RA BKN008 OVC024 09/09 A3004 RMK AO2 CIG 006V011 P0002
  • 230414Z AUTO 02013KT 6SM -RA BR FEW008 OVC022 09/09 A3004 RMK AO2 P0002
  • 230356Z AUTO 02015KT 6SM -RA BR OVC022 09/09 A3004 RMK AO2 RAB07 SLP201 P0007 T00940089

TAF N/A
FIR KZBW / America del Nord



MetMap, La meteo Aeronautica in un colpo d'occhio ! - Copyright ORBIFLY Dicembre 2007 - Disclaimer

ORBIFLY MET'MAP TEAM :

Programmazione e sviluppo : Alexandra Zaïnal
Concezione e sviluppo : Baudouin d'Aumeries
Co-Programmazione e sviluppo : Marc-Olivier Méhu
Supporto tecnico e logistico : Manuel Goepfert
Aiuto per la traduzione : Arnaldo La Scala

Contatto : metmap@orbifly.com




FONTI E CREDITI :

   NOAA